Airfield :
LOGIN :

Register | Disclaimer

   EN    FR    IT 

 










Legend :    VFR   Marginal VFR   IFR   Intensive IFR   Very Intensive IFR
Visi :
Ceiling :
>= 8 km
>= 3000ft
5 to 8 km
1000 to 3000 ft
1500m to 5 km
500 to 1000 ft
800 to 1500m
200 to 500 ft
< 800m
< 200 ft
Symbols :   Thunderstorms  Fog  Heavy snow  Heavy precipitations  Wind > 20 kt
SIGMETs :     Misc.  Thunderstorms  Icing  Turbulence  Mountain Waves  Volcanic Ashes







- Airport Elevation : 512 ft
- IATA code : URO
- Download approach charts


LFOP - Rouen Vallée de Seine

CURRENT METAR :
  • 250100Z AUTO 36011KT CAVOK 17/14 Q1015

EXPIRED METARs :
  • 250030Z AUTO 32014KT 290V350 CAVOK 17/14 Q1016
  • 250000Z AUTO 27010KT CAVOK 18/14 Q1016
  • 242330Z AUTO 32008KT 240V020 CAVOK 18/15 Q1016
  • 242300Z AUTO 02011KT CAVOK 18/15 Q1015
  • 242230Z AUTO 02012KT CAVOK 18/15 Q1015

TAF TAF LFOP
Valid from the 24 at 18:00 until the 25 at 18:00 UTC


241700Z 2418/2518 01007KT CAVOK
BECMG 2506/2509 24010KT
BECMG 2514/2517 34010KT
ATIS : +33 2 35 80 80 34
Met : +33 2 32 86 52 80
No reported NOTAMs for that airfield.
1 SIGMET reported for the Paris FIR (LFFF) :
 
Embedded thunderstorms and hail
LFFF SIGMET 2 VALID 242300/250300 LFPW
LFFF PARIS FIR/UIR EMBD TSGR FCST WI N4830 W00015 - N5000 W00015 - N5115 E00200 - N5115 E00215 - N4830 E00045 - N4830 W00015 TOP FL380 MOV NE 20KT NC=



MET'MAP, your aeronautical weather chart ! - Copyright ORBIFLY December 2007 - Disclaimer

ORBIFLY MET'MAP TEAM :

Programming & Development : Alexandra Zaïnal
Concept & Development : Baudouin d'Aumeries
Co-Development & Prog : Marc-Olivier Méhu
Technical & hardware support : Manuel Goepfert

Contact : metmap@orbifly.com




SOURCES & CREDITS :

   NOAA